Dunmore, West Virginia
Current Conditions -  °F | °C
As of 11:35 AM on Saturday 25 Oct 2014 (Local Time) from KHSP Reporting Station
Clear Clear  
Wind Chill: 51°   Ceiling: Unl
Heat Index: 51°   Visibility: 10mi
Dew Point: 38°   Wind: 12mph
Humidity: 62%   Direction: 280°W
Pressure: 30.02"   Gusts: 16mph
Location:  38.36°N, 79.88°W
Report Text: KHSP 251535Z AUTO 28010G14KT 10SM CLR 11/04 A3002 RMK AO2 T01050035
Loading
Personal Weather Stations






























Interactive Weather Map
Tropical Storm Tracking
New forecast layout! Learn more

10-Day Weather Forecast

Advertisements
Track Severe Weather on mobile